createdAt,value
2022-12-14T00:02:17.669Z,-2.45
2022-12-14T00:07:18.961Z,-2.78
2022-12-14T00:12:20.265Z,-2.74
2022-12-14T00:17:21.570Z,-3.78
2022-12-14T00:22:22.807Z,-3.44
2022-12-14T00:27:24.047Z,-3.18
2022-12-14T00:32:25.319Z,-3.23
2022-12-14T00:37:26.587Z,-3.31
2022-12-14T00:42:27.857Z,-3.36
2022-12-14T00:47:29.109Z,-3.42
2022-12-14T00:52:30.353Z,-3.02
2022-12-14T00:57:31.636Z,-3.65
2022-12-14T01:02:32.981Z,-3.18
2022-12-14T01:07:34.262Z,-2.83
2022-12-14T01:12:35.505Z,-2.91
2022-12-14T01:17:36.741Z,-2.95
2022-12-14T01:22:38.007Z,-3.11
2022-12-14T01:27:39.255Z,-3.33
2022-12-14T01:32:40.613Z,-3.00
2022-12-14T01:37:41.867Z,-3.12
2022-12-14T01:42:43.079Z,-2.84
2022-12-14T01:47:44.388Z,-2.90
2022-12-14T01:52:45.683Z,-2.81
2022-12-14T01:57:46.951Z,-2.59
2022-12-14T02:02:48.253Z,-2.76
2022-12-14T02:07:49.563Z,-2.74
2022-12-14T02:12:50.844Z,-3.33
2022-12-14T02:17:52.113Z,-3.04
2022-12-14T02:22:53.406Z,-2.82
2022-12-14T02:27:54.696Z,-2.80
2022-12-14T02:32:55.965Z,-2.70
2022-12-14T02:37:57.203Z,-2.42
2022-12-14T02:42:58.595Z,-2.32
2022-12-14T02:47:59.818Z,-3.02
2022-12-14T02:53:01.067Z,-3.41
2022-12-14T02:58:02.314Z,-3.13
2022-12-14T03:03:03.590Z,-3.42
2022-12-14T03:08:05.331Z,-2.79
2022-12-14T03:13:06.665Z,-2.70
2022-12-14T03:18:07.945Z,-2.66
2022-12-14T03:23:09.254Z,-3.40
2022-12-14T03:28:10.602Z,-3.09
2022-12-14T03:33:11.872Z,-3.29
2022-12-14T03:38:13.135Z,-2.79
2022-12-14T03:43:14.497Z,-2.67
2022-12-14T03:48:15.749Z,-2.43
2022-12-14T03:53:17.033Z,-2.14
2022-12-14T03:58:18.223Z,-2.22
2022-12-14T04:03:19.647Z,-2.01
2022-12-14T04:08:21.484Z,-2.08
2022-12-14T04:13:41.575Z,-2.17
2022-12-14T04:19:00.288Z,-2.13
2022-12-14T04:24:20.999Z,-2.18
2022-12-14T04:29:45.745Z,-2.03
2022-12-14T04:34:48.702Z,-2.03
2022-12-14T04:39:49.984Z,-1.80
2022-12-14T04:44:51.249Z,-1.81
2022-12-14T04:49:52.503Z,-1.82
2022-12-14T04:54:53.711Z,-1.98
2022-12-14T04:59:54.993Z,-1.98
2022-12-14T05:04:56.261Z,-2.15
2022-12-14T05:09:57.618Z,-2.14
2022-12-14T05:14:58.885Z,-1.85
2022-12-14T05:20:00.125Z,-1.80
2022-12-14T05:25:01.390Z,-1.71
2022-12-14T05:30:03.142Z,-1.83
2022-12-14T05:35:04.453Z,-2.07
2022-12-14T05:40:06.280Z,-1.93
2022-12-14T05:45:08.118Z,-1.85
2022-12-14T05:50:09.384Z,-1.94
2022-12-14T05:55:10.625Z,-1.63
2022-12-14T06:00:11.841Z,-1.83
2022-12-14T06:05:13.074Z,-1.79
2022-12-14T06:10:14.454Z,-2.13
2022-12-14T06:15:15.750Z,-2.25
2022-12-14T06:20:16.969Z,-2.25
2022-12-14T06:25:18.257Z,-2.43
2022-12-14T06:30:19.621Z,-2.64
2022-12-14T06:35:20.931Z,-2.46
2022-12-14T06:40:22.162Z,-2.59
2022-12-14T06:45:23.449Z,-2.55
2022-12-14T06:50:24.731Z,-2.69
2022-12-14T06:55:25.983Z,-2.70
2022-12-14T07:00:27.256Z,-2.66
2022-12-14T07:05:28.530Z,-2.70
2022-12-14T07:10:29.860Z,-2.32
2022-12-14T07:15:31.107Z,-2.07
2022-12-14T07:20:32.425Z,-2.30
2022-12-14T07:25:33.632Z,-2.12
2022-12-14T07:30:34.834Z,-2.00
2022-12-14T07:35:36.065Z,-2.12
2022-12-14T07:40:37.304Z,-1.95
2022-12-14T07:45:38.615Z,-2.48
2022-12-14T07:50:39.856Z,-2.63
2022-12-14T07:55:41.111Z,-2.37
2022-12-14T08:00:42.368Z,-2.08
2022-12-14T08:05:43.642Z,-2.15
2022-12-14T08:10:46.248Z,-2.68
2022-12-14T08:15:47.889Z,-2.72
2022-12-14T08:20:53.077Z,-2.44
2022-12-14T08:25:55.061Z,-2.52
2022-12-14T08:30:56.503Z,-2.33
2022-12-14T08:35:57.863Z,-2.34
2022-12-14T08:40:59.217Z,-2.18
2022-12-14T08:46:00.586Z,-2.37
2022-12-14T08:51:04.919Z,-2.29
2022-12-14T08:56:06.267Z,-2.41
2022-12-14T09:01:07.623Z,-2.50
2022-12-14T09:06:08.945Z,-2.50
2022-12-14T09:11:10.257Z,-2.84
2022-12-14T09:16:11.643Z,-2.49
2022-12-14T09:21:19.399Z,-2.21
2022-12-14T09:26:20.796Z,-2.11
2022-12-14T09:31:22.313Z,-2.45
2022-12-14T09:36:23.729Z,-2.42
2022-12-14T09:41:25.242Z,-2.46
2022-12-14T09:46:27.171Z,-2.33
2022-12-14T09:51:28.521Z,-2.23
2022-12-14T09:56:29.842Z,-1.82
2022-12-14T10:01:33.110Z,-2.18
2022-12-14T10:06:34.438Z,-2.39
2022-12-14T10:11:38.005Z,-2.28
2022-12-14T10:16:45.857Z,-2.21
2022-12-14T10:21:49.791Z,-2.15
2022-12-14T10:26:51.340Z,-2.02
2022-12-14T10:31:52.808Z,-1.88
2022-12-14T10:36:54.231Z,-1.68
2022-12-14T10:41:55.603Z,-1.65
2022-12-14T10:46:56.902Z,-1.81
2022-12-14T10:52:01.841Z,-2.18
2022-12-14T10:57:03.341Z,-2.00
2022-12-14T11:02:05.978Z,-2.31
2022-12-14T11:07:07.445Z,-2.45
2022-12-14T11:12:08.775Z,-2.05
2022-12-14T11:17:10.195Z,-1.72
2022-12-14T11:22:12.893Z,-1.92
2022-12-14T11:27:17.285Z,-1.60
2022-12-14T11:32:18.518Z,-1.93
2022-12-14T11:37:20.004Z,-2.11
2022-12-14T11:42:21.259Z,-2.02
2022-12-14T11:47:22.554Z,-1.81
2022-12-14T11:52:23.920Z,-1.65
2022-12-14T11:57:25.167Z,-1.36
2022-12-14T12:02:27.383Z,-1.21
2022-12-14T12:07:28.808Z,-1.04
2022-12-14T12:12:30.101Z,-1.13
2022-12-14T12:17:31.493Z,-1.26
2022-12-14T12:22:33.521Z,-1.41
2022-12-14T12:27:34.780Z,-1.71
2022-12-14T12:32:36.030Z,-1.86
2022-12-14T12:37:37.266Z,-1.73
2022-12-14T12:42:38.498Z,-1.77
2022-12-14T12:47:47.360Z,-1.75
2022-12-14T12:52:49.278Z,-1.95
2022-12-14T12:57:50.585Z,-1.90
2022-12-14T13:02:51.996Z,-1.79
2022-12-14T13:07:53.444Z,-1.92
2022-12-14T13:12:54.757Z,-1.69
2022-12-14T13:17:55.983Z,-1.41
2022-12-14T13:22:59.508Z,-1.48
2022-12-14T13:28:07.196Z,-1.41
2022-12-14T13:33:08.392Z,-1.93
2022-12-14T13:38:09.596Z,-1.86
2022-12-14T13:43:10.852Z,-1.58
2022-12-14T13:48:12.128Z,-1.87
2022-12-14T13:53:13.402Z,-1.75
2022-12-14T13:58:14.679Z,-1.83
2022-12-14T14:03:16.019Z,-1.63
2022-12-14T14:08:17.367Z,-1.31
2022-12-14T14:13:18.580Z,-1.09
2022-12-14T14:18:19.849Z,-0.80
2022-12-14T14:23:21.655Z,-0.88
2022-12-14T14:28:23.405Z,-0.66
2022-12-14T14:33:44.799Z,-0.68
2022-12-14T14:38:46.894Z,-0.40
2022-12-14T14:43:49.809Z,-0.44
2022-12-14T14:48:51.161Z,-0.62
2022-12-14T14:53:52.443Z,-0.70
2022-12-14T14:58:53.726Z,-0.52
2022-12-14T15:03:55.439Z,-0.70
2022-12-14T15:08:56.832Z,-0.78
2022-12-14T15:13:58.036Z,-0.54
2022-12-14T15:18:59.319Z,-0.42
2022-12-14T15:24:00.580Z,-0.31
2022-12-14T15:29:04.484Z,-0.53
2022-12-14T15:34:05.794Z,-0.66
2022-12-14T15:39:07.065Z,-0.91
2022-12-14T15:44:08.293Z,-0.60
2022-12-14T15:49:10.649Z,-0.37
2022-12-14T15:54:11.853Z,-1.28
2022-12-14T15:59:13.051Z,-1.51
2022-12-14T16:04:14.317Z,-1.36
2022-12-14T16:09:15.667Z,-1.13
2022-12-14T16:14:16.996Z,-0.94
2022-12-14T16:19:27.272Z,-0.75
2022-12-14T16:24:29.781Z,-0.78
2022-12-14T16:29:31.071Z,-0.57
2022-12-14T16:34:33.337Z,-0.34
2022-12-14T16:39:34.618Z,-0.10
2022-12-14T16:44:35.874Z,-0.04
2022-12-14T16:49:39.435Z,-0.01
2022-12-14T16:54:40.777Z,0.08
2022-12-14T16:59:42.517Z,-0.23
2022-12-14T17:04:43.839Z,-0.17
2022-12-14T17:09:45.199Z,-0.10
2022-12-14T17:14:49.693Z,-0.03
2022-12-14T17:19:51.822Z,-0.24
2022-12-14T17:24:53.079Z,-0.52
2022-12-14T17:29:55.201Z,-1.05
2022-12-14T17:34:56.424Z,-1.11
2022-12-14T17:39:59.648Z,-1.47
2022-12-14T17:45:00.895Z,-1.14
2022-12-14T17:50:02.193Z,-1.11
2022-12-14T17:55:03.475Z,-1.03
2022-12-14T18:00:23.505Z,-1.05
2022-12-14T18:05:24.758Z,-0.83
2022-12-14T18:10:26.136Z,-1.01
2022-12-14T18:15:27.416Z,-0.84
2022-12-14T18:20:28.702Z,-0.61
2022-12-14T18:25:30.272Z,-0.76
2022-12-14T18:30:38.699Z,-0.54
2022-12-14T18:35:42.006Z,-0.25
2022-12-14T18:40:43.257Z,-0.06
2022-12-14T18:45:49.067Z,-0.17
2022-12-14T18:50:50.464Z,-0.11
2022-12-14T18:55:51.827Z,-0.02
2022-12-14T19:00:53.353Z,-0.04
2022-12-14T19:06:04.346Z,-0.25
2022-12-14T19:11:15.378Z,-0.13
2022-12-14T19:16:16.871Z,-0.09
2022-12-14T19:21:18.271Z,0.13
2022-12-14T19:26:19.527Z,-0.22
2022-12-14T19:31:20.930Z,0.06
2022-12-14T19:36:22.271Z,0.02
2022-12-14T19:41:24.168Z,0.12
2022-12-14T19:46:25.528Z,-0.17
2022-12-14T19:51:26.753Z,0.04
2022-12-14T19:56:27.958Z,0.04
2022-12-14T20:01:32.604Z,-0.55
2022-12-14T20:06:33.979Z,-0.15
2022-12-14T20:11:35.253Z,-0.36
2022-12-14T20:16:36.559Z,-0.45
2022-12-14T20:21:37.872Z,-0.08
2022-12-14T20:26:39.131Z,-0.27
2022-12-14T20:31:40.368Z,-0.26
2022-12-14T20:36:41.679Z,0.05
2022-12-14T20:41:42.974Z,0.03
2022-12-14T20:46:44.871Z,0.03
2022-12-14T20:51:46.319Z,0.04
2022-12-14T20:56:50.686Z,0.27
2022-12-14T21:01:55.816Z,0.20
2022-12-14T21:06:57.677Z,0.27
2022-12-14T21:12:17.952Z,0.39
2022-12-14T21:17:19.181Z,0.43
2022-12-14T21:22:20.497Z,0.21
2022-12-14T21:27:21.799Z,-0.04
2022-12-14T21:32:23.093Z,0.12
2022-12-14T21:37:24.368Z,0.18
2022-12-14T21:42:25.655Z,0.14
2022-12-14T21:47:26.992Z,0.19
2022-12-14T21:52:31.243Z,0.20
2022-12-14T21:57:51.324Z,0.28
2022-12-14T22:02:52.659Z,0.40
2022-12-14T22:07:54.080Z,0.25
2022-12-14T22:12:55.841Z,0.05
2022-12-14T22:17:57.201Z,0.08
2022-12-14T22:22:58.420Z,-0.14
2022-12-14T22:27:59.621Z,-0.14
2022-12-14T22:33:00.879Z,-0.17
2022-12-14T22:38:02.124Z,-0.73
2022-12-14T22:43:03.400Z,-0.57
2022-12-14T22:48:04.643Z,-0.56
2022-12-14T22:53:05.906Z,-0.78
2022-12-14T22:58:07.130Z,-0.95
2022-12-14T23:03:08.449Z,-1.29
2022-12-14T23:08:09.737Z,-1.43
2022-12-14T23:13:29.697Z,-0.91
2022-12-14T23:18:49.749Z,-1.21
2022-12-14T23:24:09.677Z,-1.33
2022-12-14T23:29:29.824Z,-1.36
2022-12-14T23:34:49.596Z,-1.11
2022-12-14T23:40:09.480Z,-1.40
2022-12-14T23:45:29.278Z,-1.11
2022-12-14T23:50:49.639Z,-1.13
2022-12-14T23:56:09.561Z,-1.02
